Time;durP1;ratioP1;P1;durP2;ratioP2;P2;SDS_P1;SDS_P2;PMS_P1;PMS_P2;Temp;Humidity;BMP_temperature;BMP_pressure;BME280_temperature;BME280_humidity;BME280_pressure;Samples;Min_cycle;Max_cycle;Signal;HPM_P1;HPM_P2
2023/04/06 00:01:26;;;;;;;2.17;1.58;;;18.70;60.30;;;;;;6245551;23;20427;-75
2023/04/06 00:03:52;;;;;;;1.85;1.25;;;18.70;46.60;;;;;;6245290;23;20413;-75
2023/04/06 00:06:18;;;;;;;1.33;1.23;;;18.70;46.80;;;;;;6245458;23;20432;-75
2023/04/06 00:08:44;;;;;;;1.20;1.10;;;18.70;46.90;;;;;;6245615;23;20001;-75
2023/04/06 00:11:10;;;;;;;1.00;1.00;;;18.70;46.90;;;;;;6245454;23;20008;-74
2023/04/06 00:13:36;;;;;;;1.50;1.40;;;18.70;46.70;;;;;;6245600;23;20002;-75
2023/04/06 00:16:05;;;;;;;1.40;1.30;;;18.70;46.70;;;;;;6245899;23;20012;-75
2023/04/06 00:18:31;;;;;;;1.60;1.27;;;18.70;46.70;;;;;;6245124;23;19999;-75
2023/04/06 00:20:57;;;;;;;1.98;1.40;;;18.70;46.70;;;;;;6245415;23;20065;-75
2023/04/06 00:23:23;;;;;;;2.63;1.50;;;18.70;46.70;;;;;;6245450;23;19997;-75
2023/04/06 00:25:49;;;;;;;2.05;1.40;;;18.70;46.80;;;;;;6245491;23;20008;-75
2023/04/06 00:28:15;;;;;;;2.05;1.77;;;18.70;46.70;;;;;;6245380;23;20007;-75
2023/04/06 00:30:41;;;;;;;1.23;1.13;;;18.70;46.60;;;;;;6244809;23;20052;-75
2023/04/06 00:33:07;;;;;;;1.77;1.20;;;18.60;46.70;;;;;;6244687;23;20501;-75
2023/04/06 00:35:34;;;;;;;1.23;1.13;;;18.60;46.60;;;;;;6245302;23;19992;-75
2023/04/06 00:38:00;;;;;;;1.33;1.10;;;18.60;46.60;;;;;;6244855;23;20458;-75
2023/04/06 00:40:28;;;;;;;1.67;1.30;;;18.60;46.60;;;;;;6244888;23;20371;-74
2023/04/06 00:42:55;;;;;;;3.03;1.33;;;18.60;46.70;;;;;;6244673;23;20023;-74
2023/04/06 00:45:21;;;;;;;2.13;1.73;;;18.60;46.70;;;;;;6245259;23;20003;-75
2023/04/06 00:47:46;;;;;;;1.40;1.30;;;18.60;46.80;;;;;;6244852;23;19996;-75
2023/04/06 00:50:12;;;;;;;1.80;1.25;;;18.60;46.80;;;;;;6245228;23;19996;-75
2023/04/06 00:52:39;;;;;;;1.50;1.38;;;18.50;46.70;;;;;;6245026;23;20007;-75
2023/04/06 00:55:05;;;;;;;1.10;1.00;;;18.60;46.70;;;;;;6245148;23;20000;-75
2023/04/06 00:57:31;;;;;;;1.30;1.20;;;18.50;46.60;;;;;;6245036;23;20059;-75
2023/04/06 00:59:57;;;;;;;1.52;1.13;;;18.50;46.80;;;;;;6255012;23;20403;-75
2023/04/06 01:02:24;;;;;;;1.35;1.15;;;18.50;46.80;;;;;;6255112;23;20000;-74
2023/04/06 01:04:50;;;;;;;1.15;0.90;;;18.50;46.70;;;;;;6255023;23;19996;-74
2023/04/06 01:07:15;;;;;;;1.35;1.15;;;18.50;46.80;;;;;;6254899;23;20031;-75
2023/04/06 01:09:41;;;;;;;1.70;1.00;;;18.50;46.80;;;;;;6254845;23;20079;-75
2023/04/06 01:12:07;;;;;;;1.23;1.13;;;18.50;46.90;;;;;;6244928;23;20012;-75
2023/04/06 01:14:33;;;;;;;1.42;1.33;;;18.50;46.80;;;;;;6254838;23;20490;-75
2023/04/06 01:17:00;;;;;;;1.45;1.20;;;18.50;46.70;;;;;;6228152;23;20000;-75
2023/04/06 01:19:26;;;;;;;1.83;1.17;;;18.50;46.80;;;;;;6254897;23;19992;-75
2023/04/06 01:21:53;;;;;;;2.08;1.25;;;18.50;46.80;;;;;;6254909;23;20007;-74
2023/04/06 01:24:19;;;;;;;1.85;1.40;;;18.50;46.70;;;;;;6244584;23;19996;-75
2023/04/06 01:26:45;;;;;;;1.10;1.00;;;18.50;46.80;;;;;;6254792;23;20057;-75
2023/04/06 01:29:11;;;;;;;3.30;1.65;;;18.40;46.70;;;;;;6244948;23;20083;-75
2023/04/06 01:31:36;;;;;;;1.98;1.42;;;18.40;46.80;;;;;;6254656;23;20050;-74
2023/04/06 01:34:02;;;;;;;1.80;1.20;;;18.40;46.80;;;;;;6254876;23;19997;-75
2023/04/06 01:36:27;;;;;;;1.73;1.10;;;18.40;61.20;;;;;;6254702;23;20071;-75
2023/04/06 01:38:53;;;;;;;1.65;1.38;;;18.40;46.90;;;;;;6254799;23;20420;-75
2023/04/06 01:41:18;;;;;;;1.40;1.17;;;18.40;46.80;;;;;;6254830;23;20003;-75
2023/04/06 01:43:45;;;;;;;1.33;1.13;;;18.40;46.90;;;;;;6254315;23;20008;-75
2023/04/06 01:46:11;;;;;;;1.40;1.30;;;18.40;46.80;;;;;;6254673;23;20003;-75
2023/04/06 01:48:36;;;;;;;1.60;1.50;;;18.40;46.80;;;;;;6254575;23;19993;-74
2023/04/06 01:51:02;;;;;;;1.55;1.40;;;18.40;46.70;;;;;;6244419;23;20367;-74
2023/04/06 01:53:28;;;;;;;1.98;1.13;;;18.30;46.70;;;;;;6254730;23;19993;-74
2023/04/06 01:55:53;;;;;;;1.83;1.30;;;18.30;46.70;;;;;;6254625;23;20000;-75
2023/04/06 01:58:19;;;;;;;1.55;1.40;;;18.30;46.70;;;;;;6254701;23;19992;-74
2023/04/06 02:00:44;;;;;;;1.48;1.08;;;18.30;46.80;;;;;;6254519;23;20427;-74
2023/04/06 02:03:10;;;;;;;1.83;1.38;;;18.30;46.80;;;;;;6254540;23;19992;-75
2023/04/06 02:05:37;;;;;;;2.97;1.48;;;18.30;46.80;;;;;;6244709;23;20004;-74
2023/04/06 02:08:07;;;;;;;1.95;1.20;;;18.30;46.90;;;;;;6254688;23;20048;-75
2023/04/06 02:10:34;;;;;;;1.65;1.50;;;18.30;47.00;;;;;;6254543;23;20507;-75
2023/04/06 02:13:00;;;;;;;1.52;1.40;;;18.30;46.80;;;;;;6254553;23;19996;-75
2023/04/06 02:15:26;;;;;;;4.00;1.45;;;18.20;46.80;;;;;;6254963;23;19997;-75
2023/04/06 02:17:51;;;;;;;1.63;1.25;;;18.30;46.80;;;;;;6254450;23;19996;-75
2023/04/06 02:20:17;;;;;;;1.75;1.48;;;18.20;46.90;;;;;;6254623;23;20300;-75
2023/04/06 02:22:43;;;;;;;1.83;1.00;;;18.20;46.70;;;;;;6254492;23;20006;-75
2023/04/06 02:25:09;;;;;;;1.63;1.20;;;18.20;46.90;;;;;;6254519;23;20003;-75
2023/04/06 02:27:35;;;;;;;1.50;1.05;;;18.20;46.90;;;;;;6254554;23;20020;-75
2023/04/06 02:30:02;;;;;;;1.23;1.13;;;18.20;47.40;;;;;;6254466;23;20000;-75
2023/04/06 02:32:27;;;;;;;3.95;1.35;;;18.20;46.80;;;;;;6254402;23;20380;-75
2023/04/06 02:34:54;;;;;;;1.88;1.15;;;18.20;46.80;;;;;;6244213;23;20024;-75
2023/04/06 02:37:20;;;;;;;1.63;1.33;;;18.20;46.90;;;;;;6244556;23;20004;-75
2023/04/06 02:39:46;;;;;;;1.77;1.15;;;18.20;46.80;;;;;;6244553;23;20015;-75
2023/04/06 02:42:12;;;;;;;2.28;1.35;;;18.10;46.90;;;;;;6244298;23;20087;-75
2023/04/06 02:44:38;;;;;;;3.38;1.73;;;18.20;46.80;;;;;;6244309;23;20428;-75
2023/04/06 02:47:04;;;;;;;2.42;1.50;;;18.20;46.90;;;;;;6244528;23;20004;-75
2023/04/06 02:49:30;;;;;;;2.70;1.42;;;18.10;46.90;;;;;;6244620;23;20411;-75
2023/04/06 02:51:56;;;;;;;1.40;1.30;;;18.10;46.90;;;;;;6244520;23;20008;-75
2023/04/06 02:54:22;;;;;;;2.63;1.83;;;18.10;46.90;;;;;;6217671;23;20008;-75
2023/04/06 02:56:48;;;;;;;1.60;1.50;;;18.10;46.80;;;;;;6246002;23;20004;-75
2023/04/06 02:59:14;;;;;;;2.28;1.40;;;18.10;46.70;;;;;;6246385;23;20029;-75
2023/04/06 03:01:40;;;;;;;2.95;1.33;;;18.10;46.80;;;;;;6246263;23;20000;-75
2023/04/06 03:04:06;;;;;;;2.10;1.20;;;18.10;47.60;;;;;;6245850;23;20072;-75
2023/04/06 03:06:32;;;;;;;1.60;1.50;;;18.10;46.90;;;;;;6246231;23;20007;-75
2023/04/06 03:08:58;;;;;;;3.00;1.70;;;18.10;47.00;;;;;;6246170;23;20000;-75
2023/04/06 03:11:26;;;;;;;1.30;1.20;;;18.10;47.00;;;;;;6246203;23;20004;-75
2023/04/06 03:13:52;;;;;;;2.10;1.58;;;18.10;46.90;;;;;;6246180;23;20070;-75
2023/04/06 03:16:18;;;;;;;1.60;1.33;;;18.10;46.90;;;;;;6246162;23;20000;-75
2023/04/06 03:18:47;;;;;;;1.60;1.50;;;18.00;46.90;;;;;;6256120;23;20458;-75
2023/04/06 03:21:15;;;;;;;1.67;1.50;;;18.10;47.00;;;;;;6219972;23;20004;-75
2023/04/06 03:23:40;;;;;;;2.33;1.80;;;18.00;46.90;;;;;;6255933;23;19996;-75
2023/04/06 03:26:06;;;;;;;2.10;1.90;;;18.00;47.00;;;;;;6255910;23;20435;-75
2023/04/06 03:28:32;;;;;;;3.08;1.92;;;18.00;46.60;;;;;;6255911;23;19993;-75
2023/04/06 03:30:57;;;;;;;1.85;1.60;;;18.00;47.00;;;;;;6255799;23;20007;-75
2023/04/06 03:33:23;;;;;;;1.60;1.50;;;18.00;47.00;;;;;;6255992;23;20032;-75
2023/04/06 03:35:48;;;;;;;3.50;2.00;;;18.00;47.10;;;;;;6255966;23;19993;-75
2023/04/06 03:38:14;;;;;;;2.70;1.85;;;18.00;47.00;;;;;;6255774;23;20007;-75
2023/04/06 03:40:40;;;;;;;3.75;2.00;;;17.90;46.90;;;;;;6245870;23;19996;-75
2023/04/06 03:43:05;;;;;;;2.92;2.05;;;18.00;47.10;;;;;;6255549;23;20012;-75
2023/04/06 03:45:31;;;;;;;3.20;2.00;;;17.90;46.80;;;;;;6245943;23;20416;-75
2023/04/06 03:47:56;;;;;;;2.70;1.77;;;17.50;46.80;;;;;;6255741;23;20044;-75
2023/04/06 03:50:23;;;;;;;2.38;1.98;;;18.00;47.00;;;;;;6245778;23;20081;-75
2023/04/06 03:52:48;;;;;;;1.50;1.40;;;17.90;46.90;;;;;;6255670;23;20094;-76
2023/04/06 03:55:14;;;;;;;2.15;1.80;;;17.90;46.90;;;;;;6255799;23;20067;-77
2023/04/06 03:57:40;;;;;;;2.45;2.10;;;17.90;47.00;;;;;;6264228;23;20367;-77
2023/04/06 04:00:06;;;;;;;3.05;2.03;;;17.90;47.00;;;;;;6256752;23;20000;-77
2023/04/06 04:02:32;;;;;;;2.15;1.58;;;17.90;46.90;;;;;;6255493;23;20000;-75
2023/04/06 04:04:57;;;;;;;4.82;1.98;;;17.90;47.10;;;;;;6255514;23;20059;-77
2023/04/06 04:07:23;;;;;;;2.58;1.98;;;17.90;47.30;;;;;;6218279;23;19997;-75
2023/04/06 04:09:48;;;;;;;4.22;1.92;;;17.90;47.30;;;;;;6255376;23;19992;-76
2023/04/06 04:12:16;;;;;;;2.50;1.83;;;17.90;47.30;;;;;;6244882;23;20012;-76
2023/04/06 04:14:43;;;;;;;3.38;1.83;;;17.90;47.20;;;;;;6245754;23;20000;-76
2023/04/06 04:17:09;;;;;;;7.95;2.40;;;17.80;47.20;;;;;;6245542;23;19996;-76
2023/04/06 04:19:35;;;;;;;3.35;2.47;;;17.90;47.30;;;;;;6245557;23;20010;-76
2023/04/06 04:22:04;;;;;;;2.67;2.17;;;17.90;47.20;;;;;;6245930;23;20071;-76
2023/04/06 04:24:31;;;;;;;5.68;2.53;;;17.80;47.20;;;;;;6245232;23;19992;-76
2023/04/06 04:26:57;;;;;;;4.18;2.60;;;17.80;47.10;;;;;;6245100;23;20415;-76
2023/04/06 04:29:23;;;;;;;4.15;2.65;;;17.80;47.10;;;;;;6245357;23;19992;-75
2023/04/06 04:31:50;;;;;;;3.65;2.80;;;17.90;47.10;;;;;;6245312;23;20050;-76
2023/04/06 04:34:16;;;;;;;3.10;2.10;;;17.90;62.40;;;;;;6245282;23;19996;-76
2023/04/06 04:36:42;;;;;;;2.72;2.08;;;17.80;47.20;;;;;;6245382;23;20477;-76
2023/04/06 04:39:08;;;;;;;2.92;2.47;;;17.80;47.20;;;;;;6245385;23;20063;-76
2023/04/06 04:41:35;;;;;;;3.90;2.67;;;17.80;47.30;;;;;;6245311;23;20061;-76
2023/04/06 04:44:01;;;;;;;5.07;2.60;;;17.80;47.20;;;;;;6244936;23;20016;-76
2023/04/06 04:46:27;;;;;;;4.22;2.20;;;17.80;47.20;;;;;;6244901;23;20461;-76
2023/04/06 04:48:53;;;;;;;3.08;2.20;;;17.80;47.10;;;;;;6245323;23;19992;-75
2023/04/06 04:51:22;;;;;;;3.63;2.10;;;17.80;47.30;;;;;;6245091;23;20486;-75
2023/04/06 04:53:48;;;;;;;3.90;2.40;;;17.80;47.20;;;;;;6245270;23;20339;-76
2023/04/06 04:56:14;;;;;;;4.10;2.17;;;17.80;47.20;;;;;;6244945;23;20051;-75
2023/04/06 04:58:40;;;;;;;2.40;2.20;;;17.80;47.30;;;;;;6245245;23;20003;-75
2023/04/06 05:01:06;;;;;;;3.35;1.83;;;17.80;47.30;;;;;;6245006;23;20341;-75
2023/04/06 05:03:32;;;;;;;2.83;2.13;;;17.80;47.50;;;;;;6244682;23;19996;-75
2023/04/06 05:05:58;;;;;;;5.25;2.10;;;17.70;47.30;;;;;;6245163;23;20113;-75
2023/04/06 05:08:24;;;;;;;3.85;2.20;;;17.80;47.30;;;;;;6244924;23;20358;-74
2023/04/06 05:10:51;;;;;;;2.45;2.03;;;17.80;47.50;;;;;;6244925;23;19996;-76
2023/04/06 05:13:17;;;;;;;3.65;2.28;;;17.70;47.50;;;;;;6245068;23;20022;-75
2023/04/06 05:15:43;;;;;;;2.67;2.25;;;17.80;47.60;;;;;;6245118;23;20002;-75
2023/04/06 05:18:09;;;;;;;4.60;3.55;;;17.80;47.80;;;;;;6217540;23;20052;-75
2023/04/06 05:20:35;;;;;;;4.03;3.60;;;17.80;63.00;;;;;;6254852;23;20004;-75
2023/04/06 05:23:01;;;;;;;6.53;4.00;;;17.70;47.10;;;;;;6254735;23;20006;-75
2023/04/06 05:25:28;;;;;;;5.70;4.75;;;17.70;47.20;;;;;;6254766;23;20019;-75
2023/04/06 05:27:53;;;;;;;5.03;4.28;;;17.70;47.00;;;;;;6254659;23;20000;-75
2023/04/06 05:30:20;;;;;;;8.13;5.90;;;17.70;47.10;;;;;;6254878;23;19999;-75
2023/04/06 05:32:46;;;;;;;6.75;5.30;;;17.70;47.20;;;;;;6254593;23;20004;-75
2023/04/06 05:35:12;;;;;;;6.80;6.10;;;17.70;47.40;;;;;;6244981;23;20019;-76
2023/04/06 05:37:38;;;;;;;10.10;7.28;;;17.70;47.50;;;;;;6254715;23;20011;-75
2023/04/06 05:40:05;;;;;;;8.48;7.68;;;17.70;47.50;;;;;;6244455;23;20481;-73
2023/04/06 05:42:42;;;;;;;9.13;8.20;;;17.70;47.60;;;;;;6244326;23;20072;-73
2023/04/06 05:45:10;;;;;;;9.60;7.50;;;17.70;47.60;;;;;;6244558;23;20016;-74
2023/04/06 05:47:37;;;;;;;9.18;7.80;;;17.60;47.30;;;;;;6244519;23;20027;-75
2023/04/06 05:50:03;;;;;;;9.10;8.20;;;17.70;47.30;;;;;;6254438;23;20363;-74
2023/04/06 05:52:28;;;;;;;10.40;8.00;;;17.60;47.50;;;;;;6254330;23;20047;-74
2023/04/06 05:54:54;;;;;;;8.07;6.95;;;17.60;47.50;;;;;;6254394;23;20000;-72
2023/04/06 05:57:19;;;;;;;9.75;7.20;;;17.60;47.50;;;;;;6254370;23;19996;-74
2023/04/06 05:59:45;;;;;;;9.95;6.70;;;17.60;47.50;;;;;;6254439;23;19996;-75
2023/04/06 06:02:11;;;;;;;6.43;5.82;;;17.60;47.50;;;;;;6254483;23;20024;-73
2023/04/06 06:04:36;;;;;;;6.50;5.50;;;17.60;48.10;;;;;;6254630;23;20427;-74
2023/04/06 06:07:02;;;;;;;6.88;5.20;;;17.60;47.50;;;;;;6254746;23;20004;-74
2023/04/06 06:09:28;;;;;;;7.03;5.40;;;17.60;47.70;;;;;;6254677;23;19993;-74
2023/04/06 06:11:53;;;;;;;5.85;5.25;;;17.60;47.60;;;;;;6254366;23;20071;-74
2023/04/06 06:14:19;;;;;;;5.55;4.97;;;17.60;47.60;;;;;;6254635;23;19996;-74
2023/04/06 06:16:45;;;;;;;6.72;4.55;;;17.60;47.60;;;;;;6254526;23;20006;-76
2023/04/06 06:19:11;;;;;;;5.88;4.43;;;17.60;47.90;;;;;;6244671;23;20012;-75
2023/04/06 06:21:36;;;;;;;4.35;3.92;;;17.50;47.90;;;;;;6254536;23;20000;-74
2023/04/06 06:24:02;;;;;;;5.72;4.15;;;17.60;48.00;;;;;;6254629;23;20067;-73
2023/04/06 06:26:28;;;;;;;4.65;4.20;;;17.50;47.90;;;;;;6254605;23;20036;-73
2023/04/06 06:28:53;;;;;;;4.80;3.72;;;17.60;48.00;;;;;;6244603;23;19996;-73
2023/04/06 06:31:22;;;;;;;4.85;3.67;;;17.60;48.10;;;;;;6246232;23;20008;-76
2023/04/06 06:33:50;;;;;;;3.50;2.97;;;17.50;48.20;;;;;;6256363;23;19996;-76
2023/04/06 06:36:16;;;;;;;3.72;3.28;;;17.60;48.30;;;;;;6256434;23;20379;-76
2023/04/06 06:38:42;;;;;;;4.45;3.15;;;17.50;48.20;;;;;;6246537;23;19996;-78
2023/04/06 06:41:07;;;;;;;3.40;3.08;;;17.50;48.00;;;;;;6256295;23;20354;-81
2023/04/06 06:43:33;;;;;;;3.38;2.90;;;17.50;48.00;;;;;;6256059;23;20080;-78
2023/04/06 06:45:59;;;;;;;3.33;2.95;;;17.50;48.00;;;;;;6255974;23;20053;-76
2023/04/06 06:48:24;;;;;;;9.75;3.00;;;17.50;48.30;;;;;;6255962;23;20367;-77
2023/04/06 06:50:50;;;;;;;5.57;3.53;;;17.40;48.50;;;;;;6245885;23;19997;-74
2023/04/06 06:53:16;;;;;;;6.72;2.92;;;17.40;48.50;;;;;;6256272;23;20075;-75
2023/04/06 06:55:44;;;;;;;5.63;3.22;;;17.40;48.50;;;;;;6256133;23;20451;-74
2023/04/06 06:58:10;;;;;;;7.43;3.25;;;17.40;48.30;;;;;;6256206;23;20000;-74
2023/04/06 07:00:35;;;;;;;9.52;3.33;;;17.30;48.20;;;;;;6256182;23;20521;-74
2023/04/06 07:03:01;;;;;;;7.70;3.67;;;17.30;48.40;;;;;;6255868;23;19996;-74
2023/04/06 07:05:27;;;;;;;3.85;2.65;;;17.40;48.30;;;;;;6256162;23;20435;-75
2023/04/06 07:07:53;;;;;;;4.18;2.80;;;17.40;48.90;;;;;;6256014;23;20305;-74
2023/04/06 07:10:18;;;;;;;6.07;2.80;;;17.40;48.30;;;;;;6256157;23;19993;-74
2023/04/06 07:12:44;;;;;;;3.95;2.88;;;17.50;48.20;;;;;;6255861;23;20015;-74
2023/04/06 07:15:10;;;;;;;4.93;3.28;;;17.50;48.00;;;;;;6256015;23;20028;-75
2023/04/06 07:17:35;;;;;;;5.43;3.80;;;17.50;48.10;;;;;;6256336;23;20049;-75
2023/04/06 07:20:01;;;;;;;4.65;3.42;;;17.50;48.00;;;;;;6255820;23;19996;-74
2023/04/06 07:22:27;;;;;;;4.57;2.95;;;17.50;48.00;;;;;;6255944;23;20431;-75
2023/04/06 07:24:52;;;;;;;5.20;2.83;;;17.40;48.00;;;;;;6246111;23;19997;-75
2023/04/06 07:27:18;;;;;;;3.17;2.55;;;17.50;48.00;;;;;;6255881;23;20076;-75
2023/04/06 07:29:44;;;;;;;4.22;3.20;;;17.50;48.00;;;;;;6245926;23;20000;-75
2023/04/06 07:32:10;;;;;;;3.80;2.72;;;17.50;47.80;;;;;;6245957;23;20483;-75
2023/04/06 07:34:36;;;;;;;3.72;2.67;;;17.50;48.60;;;;;;6245948;23;20004;-75
2023/04/06 07:37:03;;;;;;;4.43;3.00;;;17.50;48.00;;;;;;6245792;23;20027;-75
2023/04/06 07:39:29;;;;;;;5.15;2.33;;;17.40;47.90;;;;;;6245568;23;19996;-75
2023/04/06 07:41:55;;;;;;;6.28;2.92;;;17.40;48.80;;;;;;6245303;23;20316;-74
2023/04/06 07:44:20;;;;;;;3.10;2.25;;;17.50;48.10;;;;;;6255797;23;20000;-75
2023/04/06 07:46:46;;;;;;;3.85;2.70;;;17.50;48.00;;;;;;6255783;23;20000;-75
2023/04/06 07:49:12;;;;;;;4.72;3.20;;;17.50;47.90;;;;;;6255690;23;20050;-75
2023/04/06 07:51:39;;;;;;;4.35;2.67;;;17.50;48.00;;;;;;6255582;23;20079;-75
2023/04/06 07:54:05;;;;;;;6.30;3.20;;;17.50;47.90;;;;;;6255527;23;20027;-74
2023/04/06 07:56:30;;;;;;;4.07;2.80;;;17.50;48.00;;;;;;6245784;23;19996;-74
2023/04/06 07:58:56;;;;;;;3.67;2.88;;;17.50;47.90;;;;;;6255579;23;20000;-75
2023/04/06 08:01:22;;;;;;;4.15;3.35;;;17.50;64.00;;;;;;6255360;23;20323;-75
2023/04/06 08:03:48;;;;;;;5.10;3.20;;;17.50;48.00;;;;;;6255715;23;20000;-74
2023/04/06 08:06:15;;;;;;;4.47;3.10;;;17.60;64.10;;;;;;6245088;23;20003;-74
2023/04/06 08:08:42;;;;;;;3.53;3.22;;;17.20;63.70;;;;;;6245661;23;20424;-75
2023/04/06 08:11:09;;;;;;;4.82;3.22;;;17.50;48.00;;;;;;6245381;23;19996;-75
2023/04/06 08:13:35;;;;;;;4.90;2.88;;;17.50;48.10;;;;;;6245557;23;20007;-74
2023/04/06 08:16:02;;;;;;;4.50;3.15;;;17.40;47.90;;;;;;6245529;23;20049;-74
2023/04/06 08:18:29;;;;;;;4.53;3.25;;;17.50;48.20;;;;;;6245513;23;20063;-74
2023/04/06 08:20:56;;;;;;;6.50;3.97;;;17.50;48.20;;;;;;6245448;23;20031;-74
2023/04/06 08:23:22;;;;;;;9.30;4.65;;;17.50;48.10;;;;;;6245231;23;20462;-75
2023/04/06 08:25:48;;;;;;;8.02;3.47;;;17.50;48.00;;;;;;6245419;23;20058;-74
2023/04/06 08:28:14;;;;;;;7.93;4.05;;;17.40;48.20;;;;;;6244957;23;20427;-75
2023/04/06 08:30:42;;;;;;;8.65;4.47;;;17.40;48.30;;;;;;6244943;23;19992;-75
2023/04/06 08:33:10;;;;;;;7.80;3.65;;;17.40;48.20;;;;;;6245298;23;20004;-75
2023/04/06 08:35:36;;;;;;;7.22;3.70;;;17.40;48.30;;;;;;6245368;23;20007;-75
2023/04/06 08:38:02;;;;;;;7.70;4.28;;;17.40;48.20;;;;;;6244926;23;20486;-75
2023/04/06 08:40:28;;;;;;;8.18;4.50;;;17.40;48.30;;;;;;6245373;23;20018;-69
2023/04/06 08:43:02;;;;;;;8.82;4.70;;;17.50;48.40;;;;;;6244736;23;20546;-69
2023/04/06 08:45:27;;;;;;;7.55;4.45;;;17.50;48.20;;;;;;6255149;23;19996;-69
2023/04/06 08:47:55;;;;;;;6.13;4.07;;;17.50;48.10;;;;;;6255006;23;20424;-69
2023/04/06 08:50:21;;;;;;;6.25;3.53;;;17.50;48.20;;;;;;6255071;23;19996;-69
2023/04/06 08:52:48;;;;;;;6.68;3.78;;;17.50;48.20;;;;;;6244217;23;20039;-69
2023/04/06 08:55:14;;;;;;;7.80;3.53;;;17.50;48.30;;;;;;6255056;23;20000;-69
2023/04/06 08:57:42;;;;;;;7.00;3.35;;;17.50;48.40;;;;;;6245165;23;20020;-69
2023/04/06 09:00:10;;;;;;;6.00;3.45;;;17.50;48.30;;;;;;6245293;23;20354;-70
2023/04/06 09:02:43;;;;;;;4.18;3.03;;;17.40;48.20;;;;;;6244643;23;20003;-70
2023/04/06 09:05:10;;;;;;;4.78;2.97;;;17.50;48.30;;;;;;6245131;23;20071;-70
2023/04/06 09:07:37;;;;;;;6.50;3.35;;;17.40;48.30;;;;;;6244980;23;20004;-70
2023/04/06 09:10:07;;;;;;;5.25;3.08;;;17.40;48.40;;;;;;6245142;23;19996;-70
2023/04/06 09:12:34;;;;;;;4.55;3.10;;;17.40;48.30;;;;;;6245011;23;20016;-70
2023/04/06 09:15:01;;;;;;;4.88;3.30;;;17.40;48.30;;;;;;6245016;23;20016;-70
2023/04/06 09:17:33;;;;;;;5.57;3.15;;;17.40;48.30;;;;;;6245065;23;20000;-70
2023/04/06 09:20:03;;;;;;;4.68;2.50;;;17.50;48.40;;;;;;6245020;23;19996;-70
2023/04/06 09:22:39;;;;;;;2.25;2.00;;;17.50;48.40;;;;;;6254717;23;20003;-70
2023/04/06 09:25:05;;;;;;;3.22;2.25;;;17.40;48.30;;;;;;6254715;23;20023;-70
2023/04/06 09:27:38;;;;;;;4.63;2.72;;;17.20;64.60;;;;;;6244464;23;20007;-70
2023/04/06 09:30:05;;;;;;;3.40;2.35;;;17.50;48.50;;;;;;6254827;23;20174;-70
2023/04/06 09:32:30;;;;;;;4.97;2.60;;;17.50;48.40;;;;;;6244741;23;20008;-75
2023/04/06 09:35:08;;;;;;;5.20;2.35;;;17.50;48.40;;;;;;6254833;23;20003;-71
2023/04/06 09:37:35;;;;;;;3.50;2.13;;;17.50;48.50;;;;;;6254856;23;20000;-70
2023/04/06 09:40:07;;;;;;;4.60;2.28;;;17.50;48.40;;;;;;6254774;23;20027;-71
2023/04/06 09:42:34;;;;;;;4.18;1.95;;;17.50;48.50;;;;;;6244537;23;20072;-71
2023/04/06 09:45:00;;;;;;;3.53;2.10;;;17.50;48.60;;;;;;6254806;23;19996;-72
2023/04/06 09:47:26;;;;;;;4.63;2.10;;;17.50;48.60;;;;;;6254641;23;19997;-71
2023/04/06 09:49:58;;;;;;;2.65;1.88;;;17.50;48.50;;;;;;6254755;23;20063;-72
2023/04/06 09:52:37;;;;;;;2.65;1.77;;;17.50;48.60;;;;;;6244764;23;20332;-70
2023/04/06 09:55:05;;;;;;;4.60;2.08;;;17.60;48.60;;;;;;6254830;23;20375;-73
2023/04/06 09:57:50;;;;;;;3.42;2.20;;;17.50;48.60;;;;;;6244489;23;20424;-71
2023/04/06 10:00:20;;;;;;;2.15;1.95;;;17.50;48.60;;;;;;6243584;23;20046;-71
2023/04/06 10:02:52;;;;;;;2.35;1.80;;;17.60;48.60;;;;;;6254456;23;20023;-71
2023/04/06 10:05:33;;;;;;;2.63;1.85;;;17.50;48.60;;;;;;6256365;23;20000;-71
2023/04/06 10:08:05;;;;;;;1.60;1.23;;;17.50;48.70;;;;;;6256729;23;19996;-71
2023/04/06 10:10:30;;;;;;;2.72;1.90;;;17.60;48.60;;;;;;6256720;23;20071;-71
2023/04/06 10:12:56;;;;;;;1.30;1.20;;;17.60;48.60;;;;;;6256552;23;20035;-71
2023/04/06 10:15:22;;;;;;;1.75;1.05;;;17.60;48.80;;;;;;6256748;23;20003;-71
2023/04/06 10:17:47;;;;;;;2.10;1.80;;;17.60;48.80;;;;;;6256495;23;20004;-72
2023/04/06 10:20:23;;;;;;;2.70;2.20;;;17.60;48.70;;;;;;6256517;23;20008;-71
2023/04/06 10:23:15;;;;;;;2.25;1.70;;;17.60;48.90;;;;;;6256639;23;20012;-71
2023/04/06 10:25:53;;;;;;;2.13;1.70;;;17.50;48.80;;;;;;6256609;23;19992;-71
2023/04/06 10:28:19;;;;;;;2.40;1.60;;;17.50;48.80;;;;;;6246839;23;20002;-71
2023/04/06 10:30:45;;;;;;;3.25;1.98;;;17.60;48.90;;;;;;6256330;23;20003;-71
2023/04/06 10:33:15;;;;;;;2.15;1.40;;;17.60;49.00;;;;;;6246663;23;20331;-71
2023/04/06 10:35:41;;;;;;;;;;;17.50;49.00;;;;;;6247041;23;19996;-71
2023/04/06 10:38:07;;;;;;;1.85;1.52;;;17.50;49.00;;;;;;6246297;23;20430;-71
2023/04/06 10:40:38;;;;;;;2.08;1.65;;;17.50;48.90;;;;;;6246256;23;19997;-71
2023/04/06 10:43:11;;;;;;;3.10;2.15;;;17.50;49.00;;;;;;6246018;23;20016;-71
2023/04/06 10:45:38;;;;;;;2.28;1.80;;;17.50;49.00;;;;;;6246557;23;20364;-71
2023/04/06 10:48:17;;;;;;;1.77;1.63;;;17.50;49.00;;;;;;6246474;23;20052;-71
2023/04/06 10:50:46;;;;;;;2.33;1.43;;;17.50;66.10;;;;;;6246539;23;20004;-71
2023/04/06 10:53:27;;;;;;;2.28;1.50;;;17.50;49.70;;;;;;6246031;23;20004;-71
2023/04/06 10:55:57;;;;;;;2.17;1.67;;;17.50;49.00;;;;;;6246360;23;20056;-71
2023/04/06 10:58:27;;;;;;;2.28;1.50;;;17.50;49.10;;;;;;6245881;23;19996;-71
2023/04/06 11:00:54;;;;;;;2.88;1.98;;;17.60;66.20;;;;;;6246773;23;20003;-70
2023/04/06 11:03:24;;;;;;;1.75;1.17;;;17.50;49.10;;;;;;6245872;23;20004;-70
2023/04/06 11:05:51;;;;;;;1.90;1.20;;;17.50;49.10;;;;;;6245835;23;20297;-70
2023/04/06 11:08:30;;;;;;;1.98;0.98;;;17.50;49.10;;;;;;6219316;23;20000;-70
2023/04/06 11:11:08;;;;;;;1.77;1.40;;;17.40;66.40;;;;;;6246082;23;20042;-70
2023/04/06 11:13:46;;;;;;;1.73;1.45;;;17.50;49.00;;;;;;6255985;23;20000;-70
2023/04/06 11:16:14;;;;;;;2.25;1.63;;;17.50;49.10;;;;;;6255422;23;19999;-70
2023/04/06 11:18:47;;;;;;;2.20;1.60;;;17.50;49.30;;;;;;6255824;23;20000;-70
2023/04/06 11:21:12;;;;;;;2.63;1.42;;;17.40;49.30;;;;;;6246110;23;20007;-70
2023/04/06 11:23:38;;;;;;;1.52;1.08;;;17.40;49.30;;;;;;6255926;23;20024;-70
2023/04/06 11:26:04;;;;;;;2.30;1.70;;;17.50;49.40;;;;;;6255660;23;20000;-70
2023/04/06 11:28:30;;;;;;;1.75;1.15;;;17.50;49.30;;;;;;6255873;23;20039;-70
2023/04/06 11:30:55;;;;;;;2.42;1.65;;;17.40;49.40;;;;;;6256039;23;20023;-70
2023/04/06 11:33:24;;;;;;;1.67;1.58;;;17.50;49.40;;;;;;6255795;23;19997;-70
2023/04/06 11:35:50;;;;;;;1.67;1.40;;;17.40;49.40;;;;;;6245931;23;19996;-70
2023/04/06 11:38:19;;;;;;;2.60;1.80;;;17.40;49.50;;;;;;6245902;23;20327;-70
2023/04/06 11:40:44;;;;;;;4.07;1.65;;;17.50;49.50;;;;;;6255683;23;20083;-70
2023/04/06 11:43:13;;;;;;;1.58;1.40;;;17.50;49.40;;;;;;6255229;23;20044;-70
2023/04/06 11:45:43;;;;;;;3.63;1.50;;;17.50;49.60;;;;;;6255913;23;20020;-70
2023/04/06 11:48:19;;;;;;;2.25;1.25;;;17.50;49.60;;;;;;6255144;23;19993;-71
2023/04/06 11:50:47;;;;;;;2.58;1.00;;;17.40;49.50;;;;;;6245204;23;20000;-71
2023/04/06 11:53:13;;;;;;;1.35;1.25;;;17.50;49.60;;;;;;6245098;23;20004;-71
2023/04/06 11:55:39;;;;;;;4.05;1.20;;;17.40;49.60;;;;;;6255430;23;19999;-71
2023/04/06 11:58:06;;;;;;;2.25;1.50;;;17.40;49.60;;;;;;6245370;23;20000;-71
2023/04/06 12:00:34;;;;;;;3.97;1.77;;;17.40;49.70;;;;;;6245650;23;20008;-71
2023/04/06 12:03:00;;;;;;;2.05;1.30;;;17.40;67.70;;;;;;6245547;23;20026;-71
2023/04/06 12:05:27;;;;;;;2.10;1.50;;;17.40;49.70;;;;;;6255653;23;19997;-71
2023/04/06 12:07:52;;;;;;;1.25;1.15;;;17.40;49.80;;;;;;6255479;23;19992;-71
2023/04/06 12:10:18;;;;;;;1.67;1.15;;;17.40;49.80;;;;;;6255420;23;19996;-71
2023/04/06 12:12:43;;;;;;;2.67;1.63;;;17.40;49.90;;;;;;6245458;23;20343;-71
2023/04/06 12:15:09;;;;;;;2.22;1.20;;;17.40;49.80;;;;;;6255179;23;19999;-71
2023/04/06 12:17:36;;;;;;;1.50;1.33;;;17.40;49.90;;;;;;6255176;23;20331;-71
2023/04/06 12:20:02;;;;;;;1.73;1.40;;;15.80;66.80;;;;;;6255325;23;20370;-71
2023/04/06 12:22:28;;;;;;;1.92;1.58;;;17.30;49.80;;;;;;6245430;23;19996;-71
2023/04/06 12:24:54;;;;;;;2.53;1.63;;;17.40;49.80;;;;;;6255066;23;20023;-72
2023/04/06 12:27:19;;;;;;;1.77;1.20;;;17.50;68.20;;;;;;6244558;23;20000;-71
2023/04/06 12:29:45;;;;;;;2.35;1.75;;;17.40;50.00;;;;;;6254802;23;19992;-72
2023/04/06 12:32:11;;;;;;;2.55;1.27;;;17.40;49.90;;;;;;6254957;23;20014;-71
2023/04/06 12:34:37;;;;;;;2.22;1.80;;;17.40;49.90;;;;;;6254783;23;19992;-71
2023/04/06 12:37:04;;;;;;;1.58;1.27;;;17.30;49.90;;;;;;6218190;23;20475;-71
2023/04/06 12:39:30;;;;;;;1.50;1.40;;;17.30;50.00;;;;;;6245054;23;19997;-71
2023/04/06 12:41:57;;;;;;;1.30;1.20;;;17.30;50.00;;;;;;6245143;23;20000;-71
2023/04/06 12:44:23;;;;;;;2.75;1.45;;;;;;;;;;6245484;23;20004;-71
2023/04/06 12:46:50;;;;;;;2.08;1.75;;;17.30;49.40;;;;;;6255085;23;20071;-71